ブリスベン の空港の天気 - METARとTAF

ブリスベン空港 ( YBBN / BNE ) - オーストラリア クイーンズランド州ブリスベン
飛行場実況気象(Metar)
観測時間09/25 15:30 AEST (09/25 05:30 UTC)
風向・風速北北東 11m/s
視程10km以上
天気現象
なし
気温24℃
湿度78%
気圧1007hPa
METARYBBN 250530Z 02022KT CAVOK 24/20 Q1007
過去の天気等 Google飛行場航空写真 Wunderground天気予報

過去48時間のMETAR

飛行場予報(TAF)
発表時間: 9/25 15:01 AEST (9/25 05:01 UTC)
予報対象時間: 25日16時 AEST ~ 26日22時 AEST
風向・風速北北東 10m/s
視程10km以上
なし
25日20時 AEST から
風向・風速北 6m/s
視程10km以上
少しの雲 雲底高度 460m
26日2時 AEST から
風向・風速西 5m/s
視程10km以上
なし
26日10時 AEST から
風向・風速西南西 8m/s 瞬間風速 13m/s
視程10km以上
なし
TAF YBBN 250501Z 2506/2612 02019KT CAVOK
FM251000 35012KT 9999 FEW015
FM251600 26010KT CAVOK
FM260000 25015G25KT CAVOK